New York, New York
Traffic Map
Current Weather Conditions
New York, New York
Clear Haze
Clear
76°
Feels Like: 76°
Wind Chill: 76° Ceiling: Unl
Heat Index: 76° Visibility: 5mi
Dew Point: 71° Wind: 0mph
Humidity: 85% Direction: ° ()
Pressure: 29.86in Gusts: 0mph
Raw Report DataKNYC 310651Z AUTO 00000KT 5SM HZ CLR 24/22 A2986 RMK AO2 SLP102 T02440217
Traffic Incident Summary
Active as of:
Severity:
Category:
InformationThere was an issue retrieving the traffic information for this location. Please try a different location or try again shortly.
Advertisements
Track Severe Weather on mobile